Time;durP1;ratioP1;P1;durP2;ratioP2;P2;SDS_P1;SDS_P2;PMS_P1;PMS_P2;Temp;Humidity;BMP_temperature;BMP_pressure;BME280_temperature;BME280_humidity;BME280_pressure;Samples;Min_cycle;Max_cycle;Signal;HPM_P1;HPM_P2
2024/01/13 00:00:17;;;;;;;0.73;0.73;;;;;;;-5.12;100.00;97925.75;29373;227;63005;-57
2024/01/13 00:00:49;;;;;;;0.80;0.80;;;;;;;-5.13;100.00;97913.53;29373;318;63009;-57
2024/01/13 00:01:21;;;;;;;0.80;0.80;;;;;;;-5.12;100.00;97920.47;29373;226;63005;-57
2024/01/13 00:01:52;;;;;;;0.80;0.80;;;;;;;-5.10;100.00;97921.13;29373;295;63009;-57
2024/01/13 00:02:23;;;;;;;0.80;0.80;;;;;;;-5.11;100.00;97922.13;29373;199;63005;-57
2024/01/13 00:02:54;;;;;;;0.80;0.80;;;;;;;-5.10;100.00;97918.47;29373;202;63009;-58
2024/01/13 00:03:25;;;;;;;0.80;0.80;;;;;;;-5.08;100.00;97919.97;29373;259;63004;-57
2024/01/13 00:03:57;;;;;;;0.80;0.80;;;;;;;-5.10;100.00;97924.59;29373;240;63009;-58
2024/01/13 00:04:28;;;;;;;0.80;0.80;;;;;;;-5.11;100.00;97922.13;29373;340;63004;-57
2024/01/13 00:04:59;;;;;;;11.85;11.32;;;;;;;-5.10;100.00;97918.47;29361;202;66013;-58
2024/01/13 00:05:30;;;;;;;0.80;0.80;;;;;;;-5.08;100.00;97916.50;29371;224;64008;-58
2024/01/13 00:06:05;;;;;;;0.80;0.80;;;;;;;-5.07;100.00;97918.97;29373;219;63008;-57
2024/01/13 00:06:36;;;;;;;0.80;0.80;;;;;;;-5.07;100.00;97918.16;29373;219;63005;-57
2024/01/13 00:07:08;;;;;;;0.70;0.70;;;;;;;-5.05;100.00;97913.50;29373;274;63009;-58
2024/01/13 00:07:39;;;;;;;0.70;0.70;;;;;;;-5.05;100.00;97916.16;29373;224;63011;-57
2024/01/13 00:08:10;;;;;;;0.70;0.70;;;;;;;-5.03;100.00;97913.34;29373;261;63023;-57
2024/01/13 00:08:42;;;;;;;0.77;0.77;;;;;;;-5.05;100.00;97916.16;29373;218;63005;-57
2024/01/13 00:09:13;;;;;;;0.80;0.80;;;;;;;-5.03;100.00;97922.09;29373;223;63009;-58
2024/01/13 00:09:44;;;;;;;0.80;0.80;;;;;;;-5.05;100.00;97916.16;29373;227;63005;-57
2024/01/13 00:10:15;;;;;;;0.80;0.80;;;;;;;-5.06;100.00;97914.50;29373;202;63009;-58
2024/01/13 00:10:46;;;;;;;0.73;0.73;;;;;;;-5.05;100.00;97910.88;29371;225;64009;-58
2024/01/13 00:11:18;;;;;;;0.77;0.77;;;;;;;-5.03;100.00;97914.16;29373;206;63009;-58
2024/01/13 00:11:49;;;;;;;0.80;0.80;;;;;;;-5.02;100.00;97905.22;29373;245;63004;-57
2024/01/13 00:12:20;;;;;;;0.70;0.70;;;;;;;-5.03;100.00;97914.16;29374;219;63009;-58
2024/01/13 00:12:52;;;;;;;0.80;0.80;;;;;;;-5.04;100.00;97911.69;29374;196;63004;-57
2024/01/13 00:13:23;;;;;;;0.80;0.80;;;;;;;-5.04;100.00;97909.03;29374;197;63019;-57
2024/01/13 00:13:54;;;;;;;2.65;2.55;;;;;;;-5.03;100.00;97908.88;29374;205;63005;-56
2024/01/13 00:14:25;;;;;;;0.80;0.80;;;;;;;-5.02;100.00;97904.41;29374;219;63012;-58
2024/01/13 00:14:57;;;;;;;0.75;0.75;;;;;;;-5.02;100.00;97907.06;29373;356;64005;-57
2024/01/13 00:15:28;;;;;;;0.80;0.80;;;;;;;-5.01;100.00;97912.19;29374;208;63009;-58
2024/01/13 00:15:59;;;;;;;0.80;0.80;;;;;;;-5.00;100.00;97900.59;29372;220;64009;-57
2024/01/13 00:16:31;;;;;;;0.80;0.80;;;;;;;-5.00;100.00;97902.41;29374;199;63009;-58
2024/01/13 00:17:02;;;;;;;0.80;0.80;;;;;;;-5.00;100.00;97908.53;29374;225;63005;-56
2024/01/13 00:17:36;;;;;;;0.80;0.80;;;;;;;-4.99;100.00;97898.78;29374;205;63009;-56
2024/01/13 00:18:08;;;;;;;0.70;0.70;;;;;;;-4.99;100.00;97904.06;29374;223;63017;-58
2024/01/13 00:18:39;;;;;;;0.80;0.80;;;;;;;-4.99;100.00;97906.72;29374;209;63009;-58
2024/01/13 00:19:13;;;;;;;0.80;0.80;;;;;;;-5.00;100.00;97908.53;29374;202;63004;-57
2024/01/13 00:19:44;;;;;;;0.80;0.80;;;;;;;-5.02;100.00;97905.22;29372;197;64013;-57
2024/01/13 00:20:15;;;;;;;0.80;0.80;;;;;;;-5.02;100.00;97910.53;29374;229;63004;-57
2024/01/13 00:20:46;;;;;;;0.80;0.80;;;;;;;-5.02;100.00;97899.94;29374;223;63008;-57
2024/01/13 00:21:17;;;;;;;1.10;1.10;;;;;;;-5.03;100.00;97903.59;29374;249;63004;-56
2024/01/13 00:21:49;;;;;;;0.80;0.80;;;;;;;-5.02;100.00;97899.94;29374;239;63009;-57
2024/01/13 00:22:20;;;;;;;0.80;0.80;;;;;;;-5.01;100.00;97906.88;29374;211;63005;-57
2024/01/13 00:22:51;;;;;;;1.00;1.00;;;;;;;-5.00;100.00;97905.06;29374;233;63009;-57
2024/01/13 00:23:23;;;;;;;2.85;2.75;;;;;;;-5.00;100.00;97905.91;29374;207;63005;-58
2024/01/13 00:23:54;;;;;;;0.80;0.80;;;;;;;-4.97;100.00;97902.91;29374;245;63009;-58
2024/01/13 00:24:25;;;;;;;0.80;0.80;;;;;;;-4.97;100.00;97908.19;29374;200;63005;-58
2024/01/13 00:24:57;;;;;;;0.70;0.70;;;;;;;-4.97;100.00;97908.19;29372;204;64013;-57
2024/01/13 00:25:28;;;;;;;0.80;0.80;;;;;;;-4.95;100.00;97906.22;29374;307;63007;-57
2024/01/13 00:26:00;;;;;;;0.80;0.80;;;;;;;-4.94;100.00;97907.88;29374;202;63009;-57
2024/01/13 00:26:32;;;;;;;0.80;0.80;;;;;;;-4.94;100.00;97905.22;29374;199;63004;-58
2024/01/13 00:27:04;;;;;;;0.80;0.80;;;;;;;-4.94;100.00;97905.22;29374;199;63009;-58
2024/01/13 00:27:35;;;;;;;0.80;0.80;;;;;;;-4.94;100.00;97897.28;29374;242;63004;-58
2024/01/13 00:28:06;;;;;;;0.80;0.80;;;;;;;-4.95;100.00;97906.22;29374;198;63008;-58
2024/01/13 00:28:38;;;;;;;0.70;0.70;;;;;;;-4.94;100.00;97899.09;29374;256;63004;-57
2024/01/13 00:29:11;;;;;;;0.70;0.70;;;;;;;-4.92;100.00;97908.53;29372;286;64014;-58
2024/01/13 00:29:45;;;;;;;0.88;0.88;;;;;;;-4.91;100.00;97912.00;29374;227;63005;-57
2024/01/13 00:30:16;;;;;;;0.70;0.70;;;;;;;-4.93;100.00;97904.22;29374;225;63024;-57
2024/01/13 00:30:49;;;;;;;0.80;0.80;;;;;;;-4.95;100.00;97906.22;29374;222;63005;-57
2024/01/13 00:31:20;;;;;;;0.80;0.80;;;;;;;-4.99;100.00;97904.91;29374;224;63009;-57
2024/01/13 00:31:51;;;;;;;0.80;0.80;;;;;;;-5.01;100.00;97901.59;29374;243;63005;-57
2024/01/13 00:32:22;;;;;;;0.80;0.80;;;;;;;-5.03;100.00;97893.00;29374;363;63009;-58
2024/01/13 00:32:53;;;;;;;0.75;0.75;;;;;;;-5.03;100.00;97892.16;29374;230;63005;-58
2024/01/13 00:33:25;;;;;;;0.80;0.80;;;;;;;-5.01;100.00;97896.31;29374;275;63009;-57
2024/01/13 00:33:56;;;;;;;0.80;0.80;;;;;;;-4.99;100.00;97896.97;29374;222;63004;-58
2024/01/13 00:34:28;;;;;;;0.75;0.75;;;;;;;-4.99;100.00;97886.38;29372;197;64013;-59
2024/01/13 00:34:59;;;;;;;0.77;0.77;;;;;;;-5.00;100.00;97887.38;29374;208;63004;-58
2024/01/13 00:35:30;;;;;;;0.77;0.77;;;;;;;-4.99;100.00;97883.72;29374;226;63009;-57
2024/01/13 00:36:02;;;;;;;2.20;2.10;;;;;;;-4.99;100.00;97881.06;29374;208;63004;-57
2024/01/13 00:36:33;;;;;;;0.80;0.80;;;;;;;-4.97;100.00;97889.66;29374;227;63009;-57
2024/01/13 00:37:04;;;;;;;0.80;0.80;;;;;;;-4.98;100.00;97880.09;29374;197;63018;-57
2024/01/13 00:37:36;;;;;;;0.80;0.80;;;;;;;-4.96;100.00;97885.22;29373;229;64009;-57
2024/01/13 00:38:07;;;;;;;0.80;0.80;;;;;;;-4.97;100.00;97881.72;29374;208;63009;-58
2024/01/13 00:38:38;;;;;;;0.80;0.80;;;;;;;-4.98;100.00;97885.38;29374;207;63009;-56
2024/01/13 00:39:10;;;;;;;0.82;0.82;;;;;;;-5.00;100.00;97876.78;29372;274;64009;-57
2024/01/13 00:39:41;;;;;;;0.80;0.80;;;;;;;-4.99;100.00;97878.44;29374;351;63024;-57
2024/01/13 00:40:13;;;;;;;1.55;1.55;;;;;;;-4.98;100.00;97874.78;29372;326;64009;-57
2024/01/13 00:40:45;;;;;;;2.08;1.98;;;;;;;-4.97;100.00;97873.78;29374;207;63009;-58
2024/01/13 00:41:16;;;;;;;0.80;0.80;;;;;;;-4.96;100.00;97883.38;29374;213;63004;-58
2024/01/13 00:41:47;;;;;;;0.80;0.80;;;;;;;-4.96;100.00;97877.25;29374;329;63013;-57
2024/01/13 00:42:19;;;;;;;0.80;0.80;;;;;;;-4.96;100.00;97880.75;29374;204;63007;-58
2024/01/13 00:42:50;;;;;;;0.80;0.80;;;;;;;-4.93;100.00;97875.09;29372;375;64013;-57
2024/01/13 00:43:21;;;;;;;0.80;0.80;;;;;;;-4.91;100.00;97875.75;29373;228;63004;-57
2024/01/13 00:43:52;;;;;;;0.70;0.70;;;;;;;-4.91;100.00;97875.75;29374;303;63008;-57
2024/01/13 00:44:23;;;;;;;0.80;0.80;;;;;;;-4.91;100.00;97875.75;29374;310;63018;-58
2024/01/13 00:44:54;;;;;;;0.80;0.80;;;;;;;-4.93;100.00;97877.75;29374;317;63009;-57
2024/01/13 00:45:26;;;;;;;0.70;0.70;;;;;;;-4.95;100.00;97879.75;29374;351;63005;-57
2024/01/13 00:45:57;;;;;;;0.90;0.90;;;;;;;-4.96;100.00;97872.78;29374;387;63009;-56
2024/01/13 00:46:28;;;;;;;0.73;0.73;;;;;;;-5.00;100.00;97871.47;29374;215;63005;-57
2024/01/13 00:47:00;;;;;;;0.80;0.80;;;;;;;-5.01;100.00;97876.94;29375;215;63009;-58
2024/01/13 00:47:31;;;;;;;0.80;0.80;;;;;;;-5.04;100.00;97874.63;29373;231;64009;-57
2024/01/13 00:48:03;;;;;;;0.70;0.70;;;;;;;-5.05;100.00;97879.09;29375;207;63009;-58
2024/01/13 00:48:36;;;;;;;0.80;0.80;;;;;;;-5.07;100.00;97871.34;29375;223;63015;-58
2024/01/13 00:49:07;;;;;;;0.80;0.80;;;;;;;-5.07;100.00;97870.50;29375;202;63009;-57
2024/01/13 00:49:39;;;;;;;0.80;0.80;;;;;;;-5.07;100.00;97876.63;29375;231;63004;-58
2024/01/13 00:50:10;;;;;;;0.80;0.80;;;;;;;-5.07;100.00;97870.50;29375;238;63008;-58
2024/01/13 00:50:41;;;;;;;0.70;0.70;;;;;;;-5.07;100.00;97875.81;29375;199;63000;-58
2024/01/13 00:51:12;;;;;;;0.70;0.70;;;;;;;-5.10;100.00;97866.37;29375;201;63008;-59
2024/01/13 00:51:46;;;;;;;0.80;0.80;;;;;;;-5.10;100.00;97876.13;29373;199;64009;-56
2024/01/13 00:52:19;;;;;;;0.80;0.80;;;;;;;-5.10;100.00;97876.97;29375;198;63009;-57
2024/01/13 00:52:50;;;;;;;0.75;0.75;;;;;;;-5.10;100.00;97878.78;29375;259;63005;-55
2024/01/13 00:53:22;;;;;;;0.80;0.80;;;;;;;-5.08;100.00;97874.16;29375;199;63009;-56
2024/01/13 00:53:53;;;;;;;0.80;0.80;;;;;;;-5.08;100.00;97874.16;29375;220;63005;-57
2024/01/13 00:54:24;;;;;;;0.80;0.80;;;;;;;-5.07;100.00;97870.50;29375;284;63026;-58
2024/01/13 00:54:56;;;;;;;0.80;0.80;;;;;;;-5.04;100.00;97874.63;29375;370;63004;-58
2024/01/13 00:55:28;;;;;;;0.80;0.80;;;;;;;-4.99;100.00;97867.00;29376;277;63009;-58
2024/01/13 00:55:59;;;;;;;0.80;0.80;;;;;;;-4.98;100.00;97869.50;29374;223;64009;-58
2024/01/13 00:56:31;;;;;;;0.90;0.90;;;;;;;-4.99;100.00;97872.31;29376;255;63018;-57
2024/01/13 00:57:02;;;;;;;0.80;0.80;;;;;;;-5.06;100.00;97869.50;29376;211;63004;-59
2024/01/13 00:57:33;;;;;;;0.80;0.80;;;;;;;-5.08;100.00;97868.84;29376;304;63008;-59
2024/01/13 00:58:04;;;;;;;0.77;0.77;;;;;;;-5.11;100.00;97863.91;29376;218;63004;-59
2024/01/13 00:58:37;;;;;;;0.80;0.80;;;;;;;-5.13;100.00;97865.91;29376;272;63009;-58
2024/01/13 00:59:09;;;;;;;0.80;0.80;;;;;;;-5.18;100.00;97857.63;29376;231;63005;-58
2024/01/13 00:59:40;;;;;;;0.80;0.80;;;;;;;-5.21;100.00;97864.12;29376;213;63009;-58
2024/01/13 01:00:12;;;;;;;0.80;0.80;;;;;;;-5.23;100.00;97870.56;29376;204;63005;-56
2024/01/13 01:00:44;;;;;;;0.80;0.80;;;;;;;-5.23;100.00;97866.09;29376;207;63009;-58
2024/01/13 01:01:15;;;;;;;0.80;0.80;;;;;;;-5.21;100.00;97863.28;29374;196;64009;-57
2024/01/13 01:01:47;;;;;;;0.80;0.80;;;;;;;-5.21;100.00;97868.59;29376;211;63009;-58
2024/01/13 01:02:18;;;;;;;0.80;0.80;;;;;;;-5.21;100.00;97868.59;29376;239;63005;-58
2024/01/13 01:02:51;;;;;;;0.80;0.80;;;;;;;-5.24;100.00;97864.47;29376;199;63009;-57
2024/01/13 01:03:23;;;;;;;0.90;0.90;;;;;;;-5.25;100.00;97861.97;29376;219;63004;-58
2024/01/13 01:03:54;;;;;;;0.80;0.80;;;;;;;-5.28;100.00;97863.16;29376;253;63009;-57
2024/01/13 01:04:25;;;;;;;0.80;0.80;;;;;;;-5.30;100.00;97854.56;29376;214;63004;-59
2024/01/13 01:04:57;;;;;;;0.90;0.90;;;;;;;-5.29;100.00;97860.66;29376;218;63009;-56
2024/01/13 01:05:28;;;;;;;0.80;0.80;;;;;;;-5.29;100.00;97855.38;29374;216;64008;-57
2024/01/13 01:06:03;;;;;;;0.85;0.85;;;;;;;-5.30;100.00;97854.56;29376;222;63009;-59
2024/01/13 01:06:37;;;;;;;0.90;0.90;;;;;;;-5.30;100.00;97854.56;29376;206;63018;-57
2024/01/13 01:07:08;;;;;;;3.75;3.65;;;;;;;-5.29;100.00;97860.66;29374;310;64014;-57
2024/01/13 01:07:40;;;;;;;0.80;0.80;;;;;;;-5.27;100.00;97853.38;29376;235;63005;-58
2024/01/13 01:08:11;;;;;;;0.88;0.88;;;;;;;-5.27;100.00;97856.03;29376;301;63009;-58
2024/01/13 01:08:43;;;;;;;0.80;0.80;;;;;;;-5.26;100.00;97855.03;29375;387;63005;-57
2024/01/13 01:09:14;;;;;;;0.80;0.80;;;;;;;-5.26;100.00;97855.03;29375;319;63009;-57
2024/01/13 01:09:46;;;;;;;0.80;0.80;;;;;;;-5.25;100.00;97861.97;29375;222;63005;-57
2024/01/13 01:10:17;;;;;;;0.80;0.80;;;;;;;-5.25;100.00;97851.41;29375;209;63009;-56
2024/01/13 01:10:48;;;;;;;0.90;0.90;;;;;;;-5.24;100.00;97858.34;29375;196;63004;-56
2024/01/13 01:11:19;;;;;;;0.80;0.80;;;;;;;-5.22;100.00;97848.41;29375;193;63019;-57
2024/01/13 01:11:51;;;;;;;0.90;0.90;;;;;;;-5.21;100.00;97852.72;29373;211;64009;-57
2024/01/13 01:12:22;;;;;;;0.90;0.90;;;;;;;-5.22;100.00;97851.87;29373;317;64013;-57
2024/01/13 01:12:53;;;;;;;0.80;0.80;;;;;;;-5.22;100.00;97857.19;29375;210;63004;-57
2024/01/13 01:13:25;;;;;;;0.70;0.70;;;;;;;-5.23;100.00;97849.41;29375;247;63009;-58
2024/01/13 01:13:56;;;;;;;0.73;0.73;;;;;;;-5.22;100.00;97856.34;29375;241;63015;-57
2024/01/13 01:14:28;;;;;;;2.62;2.40;;;;;;;-5.24;100.00;97863.62;29375;231;63009;-57
2024/01/13 01:14:59;;;;;;;0.80;0.80;;;;;;;-5.26;100.00;97855.88;29375;199;63005;-57
2024/01/13 01:15:30;;;;;;;0.90;0.90;;;;;;;-5.26;100.00;97847.09;29375;218;63018;-56
2024/01/13 01:16:03;;;;;;;0.80;0.80;;;;;;;-5.25;100.00;97851.41;29375;204;63005;-57
2024/01/13 01:16:35;;;;;;;0.90;0.90;;;;;;;-5.24;100.00;97858.34;29375;210;63026;-56
2024/01/13 01:17:06;;;;;;;0.80;0.80;;;;;;;-5.25;100.00;97852.22;29373;210;64009;-57
2024/01/13 01:17:38;;;;;;;0.80;0.80;;;;;;;-5.24;100.00;97859.16;29375;279;63009;-57
2024/01/13 01:18:10;;;;;;;1.60;1.60;;;;;;;-5.22;100.00;97861.66;29373;317;64009;-57
2024/01/13 01:18:42;;;;;;;0.80;0.80;;;;;;;-5.22;100.00;97851.87;29375;218;63018;-58
2024/01/13 01:19:13;;;;;;;0.80;0.80;;;;;;;-5.21;100.00;97848.25;29375;197;63004;-58
2024/01/13 01:19:45;;;;;;;0.88;0.88;;;;;;;-5.22;100.00;97851.06;29375;215;63009;-58
2024/01/13 01:20:20;;;;;;;0.80;0.80;;;;;;;-5.25;100.00;97862.81;29375;236;63004;-57
2024/01/13 01:20:52;;;;;;;0.80;0.80;;;;;;;-5.26;100.00;97860.34;29375;221;63019;-57
2024/01/13 01:21:23;;;;;;;0.80;0.80;;;;;;;-5.26;100.00;97860.34;29375;285;63005;-58
2024/01/13 01:21:55;;;;;;;0.90;0.90;;;;;;;-5.23;100.00;97854.69;29375;213;63009;-57
2024/01/13 01:22:26;;;;;;;0.80;0.80;;;;;;;-5.17;100.00;97857.47;29375;197;63005;-58
2024/01/13 01:22:57;;;;;;;0.80;0.80;;;;;;;-5.15;100.00;97857.31;29375;197;63009;-57
2024/01/13 01:23:30;;;;;;;0.80;0.80;;;;;;;-5.15;100.00;97854.66;29373;201;64009;-58
2024/01/13 01:24:01;;;;;;;0.90;0.90;;;;;;;-5.16;100.00;97860.94;29375;285;63009;-58
2024/01/13 01:24:32;;;;;;;0.80;0.80;;;;;;;-5.18;100.00;97852.34;29375;214;63005;-57
2024/01/13 01:25:05;;;;;;;2.55;2.45;;;;;;;-5.19;100.00;97866.56;29375;213;63009;-58
2024/01/13 01:25:36;;;;;;;0.80;0.80;;;;;;;-5.20;100.00;97864.94;29375;211;63016;-58
2024/01/13 01:26:09;;;;;;;0.75;0.75;;;;;;;-5.21;100.00;97852.72;29375;383;63009;-59
2024/01/13 01:26:40;;;;;;;0.70;0.70;;;;;;;-5.25;100.00;97865.44;29375;204;63004;-58
2024/01/13 01:27:12;;;;;;;0.80;0.80;;;;;;;-5.26;100.00;97857.69;29373;235;64013;-58
2024/01/13 01:27:44;;;;;;;1.00;1.00;;;;;;;-5.26;100.00;97865.63;29375;213;63004;-58
2024/01/13 01:28:15;;;;;;;0.80;0.80;;;;;;;-5.25;100.00;97859.34;29375;291;63008;-58
2024/01/13 01:28:46;;;;;;;0.80;0.80;;;;;;;-5.24;100.00;97858.34;29375;203;63005;-58
2024/01/13 01:29:17;;;;;;;0.70;0.70;;;;;;;-5.23;100.00;97854.69;29375;209;63009;-57
2024/01/13 01:29:48;;;;;;;0.80;0.80;;;;;;;-5.24;100.00;97861.00;29375;220;63005;-59
2024/01/13 01:30:20;;;;;;;0.80;0.80;;;;;;;-5.22;100.00;97851.06;29375;209;63009;-58
2024/01/13 01:30:51;;;;;;;0.80;0.80;;;;;;;-5.22;100.00;97864.28;29375;221;63005;-58
2024/01/13 01:31:23;;;;;;;13.00;12.48;;;;;;;-5.22;100.00;97859.00;29365;259;65009;-56
2024/01/13 01:31:55;;;;;;;0.80;0.80;;;;;;;-5.22;100.00;97848.41;29375;255;63005;-58
2024/01/13 01:32:28;;;;;;;0.80;0.80;;;;;;;-5.20;100.00;97854.38;29373;218;64013;-57
2024/01/13 01:32:59;;;;;;;1.83;1.80;;;;;;;-5.21;100.00;97852.72;29373;285;64009;-57
2024/01/13 01:33:30;;;;;;;0.80;0.80;;;;;;;-5.20;100.00;97854.38;29375;214;63009;-57
2024/01/13 01:34:02;;;;;;;0.80;0.80;;;;;;;-5.18;100.00;97852.34;29375;202;63004;-57
2024/01/13 01:34:33;;;;;;;0.80;0.80;;;;;;;-5.17;100.00;97854.81;29375;202;63009;-58
2024/01/13 01:35:06;;;;;;;0.80;0.80;;;;;;;-5.16;100.00;97850.34;29375;300;63004;-57
2024/01/13 01:35:41;;;;;;;0.80;0.80;;;;;;;-5.15;100.00;97849.34;29375;215;63008;-57
2024/01/13 01:36:12;;;;;;;0.80;0.80;;;;;;;-5.14;100.00;97848.38;29375;197;63005;-57
2024/01/13 01:36:44;;;;;;;0.80;0.80;;;;;;;-5.15;100.00;97847.53;29375;202;63009;-56
2024/01/13 01:37:15;;;;;;;0.60;0.60;;;;;;;-5.17;100.00;97848.69;29375;233;63005;-57
2024/01/13 01:37:46;;;;;;;0.80;0.80;;;;;;;-5.20;100.00;97847.25;29373;209;64013;-57
2024/01/13 01:38:18;;;;;;;0.80;0.80;;;;;;;-5.19;100.00;97850.69;29375;292;63005;-57
2024/01/13 01:38:51;;;;;;;0.80;0.80;;;;;;;-5.20;100.00;97844.59;29375;206;63009;-57
2024/01/13 01:39:25;;;;;;;0.70;0.70;;;;;;;-5.20;100.00;97841.97;29375;235;63005;-57
2024/01/13 01:39:56;;;;;;;0.90;0.90;;;;;;;-5.19;100.00;97843.56;29373;215;64013;-57
2024/01/13 01:40:31;;;;;;;0.80;0.80;;;;;;;-5.20;100.00;97843.78;29375;196;63009;-57
2024/01/13 01:41:03;;;;;;;0.80;0.80;;;;;;;-5.20;100.00;97835.84;29375;218;63009;-57
2024/01/13 01:41:34;;;;;;;0.80;0.80;;;;;;;-5.18;100.00;97845.22;29375;221;63004;-57
2024/01/13 01:42:05;;;;;;;0.80;0.80;;;;;;;-5.17;100.00;97838.13;29375;234;63009;-57
2024/01/13 01:42:38;;;;;;;0.80;0.80;;;;;;;-5.21;100.00;97836.84;29375;203;63004;-58
2024/01/13 01:43:10;;;;;;;0.70;0.70;;;;;;;-5.18;100.00;97839.13;29375;204;63008;-57
2024/01/13 01:43:41;;;;;;;0.80;0.80;;;;;;;-5.19;100.00;97846.22;29373;198;64009;-57
2024/01/13 01:44:13;;;;;;;0.80;0.80;;;;;;;-5.18;100.00;97836.47;29375;224;63009;-57
2024/01/13 01:44:44;;;;;;;0.80;0.80;;;;;;;-5.21;100.00;97842.13;29375;215;63005;-57
2024/01/13 01:45:17;;;;;;;0.70;0.70;;;;;;;-5.21;100.00;97835.03;29375;220;63009;-58
2024/01/13 01:45:51;;;;;;;0.80;0.80;;;;;;;-5.20;100.00;97836.66;29375;214;63005;-57
2024/01/13 01:46:23;;;;;;;16.65;15.90;;;;;;;-5.18;100.00;97832.00;29365;203;65013;-57
2024/01/13 01:46:57;;;;;;;1.20;1.20;;;;;;;-5.15;100.00;97830.84;29373;218;64009;-57
2024/01/13 01:47:31;;;;;;;0.80;0.80;;;;;;;-5.14;100.00;97832.50;29375;216;63009;-57
2024/01/13 01:48:07;;;;;;;0.80;0.80;;;;;;;-5.15;100.00;97831.66;29375;323;63004;-57
2024/01/13 01:48:40;;;;;;;0.90;0.90;;;;;;;-5.12;100.00;97827.84;29375;203;63009;-57
2024/01/13 01:49:14;;;;;;;0.80;0.80;;;;;;;-5.11;100.00;97832.16;29375;228;63004;-57
2024/01/13 01:49:46;;;;;;;0.80;0.80;;;;;;;-5.11;100.00;97834.78;29375;218;63009;-57
2024/01/13 01:50:18;;;;;;;0.80;0.80;;;;;;;-5.11;100.00;97834.78;29375;224;63004;-57
2024/01/13 01:50:49;;;;;;;0.95;0.95;;;;;;;-5.11;100.00;97834.78;29375;196;63008;-56
2024/01/13 01:51:21;;;;;;;0.70;0.70;;;;;;;-5.12;100.00;97833.97;29375;217;63005;-57
2024/01/13 01:51:53;;;;;;;0.75;0.75;;;;;;;-5.11;100.00;97832.97;29373;221;64014;-58
2024/01/13 01:52:25;;;;;;;3.65;3.55;;;;;;;-5.08;100.00;97826.53;29375;343;63005;-57
2024/01/13 01:52:56;;;;;;;0.80;0.80;;;;;;;-5.08;100.00;97829.16;29375;219;63009;-57
2024/01/13 01:53:32;;;;;;;0.85;0.85;;;;;;;-5.09;100.00;97825.69;29375;230;63005;-57
2024/01/13 01:54:05;;;;;;;0.80;0.80;;;;;;;-5.11;100.00;97827.69;29375;290;63009;-57
2024/01/13 01:54:37;;;;;;;0.80;0.80;;;;;;;-5.14;100.00;97819.25;29375;226;63004;-56
2024/01/13 01:55:09;;;;;;;0.82;0.82;;;;;;;-5.16;100.00;97818.59;29375;261;63009;-57
2024/01/13 01:55:41;;;;;;;0.80;0.80;;;;;;;-5.16;100.00;97824.72;29375;197;63004;-57
2024/01/13 01:56:15;;;;;;;0.85;0.85;;;;;;;-5.14;100.00;97827.19;29373;323;64013;-57
2024/01/13 01:56:47;;;;;;;11.70;8.43;;;;;;;-5.11;100.00;97826.84;29370;364;64004;-57
2024/01/13 01:57:21;;;;;;;1.02;1.02;;;;;;;-5.06;100.00;97822.69;29375;304;63008;-57
2024/01/13 01:57:54;;;;;;;0.80;0.80;;;;;;;-5.01;100.00;97830.13;29375;259;63004;-57
2024/01/13 01:58:26;;;;;;;0.90;0.90;;;;;;;-4.97;100.00;97833.25;29373;228;64013;-57
2024/01/13 01:58:59;;;;;;;0.80;0.80;;;;;;;-4.96;100.00;97835.75;29375;231;63005;-57
2024/01/13 01:59:31;;;;;;;0.80;0.80;;;;;;;-4.96;100.00;97829.63;29375;198;63009;-57
2024/01/13 02:00:08;;;;;;;0.80;0.80;;;;;;;-4.98;100.00;97832.44;29375;212;63017;-57
2024/01/13 02:00:40;;;;;;;0.80;0.80;;;;;;;-5.01;100.00;97826.66;29372;218;64013;-57
2024/01/13 02:01:14;;;;;;;0.70;0.70;;;;;;;-5.06;100.00;97827.16;29373;211;63005;-57
2024/01/13 02:01:50;;;;;;;2.33;2.25;;;;;;;-5.03;100.00;97824.19;29375;208;63009;-57
2024/01/13 02:02:22;;;;;;;0.80;0.80;;;;;;;-5.00;100.00;97821.19;29373;287;63004;-56
2024/01/13 02:02:54;;;;;;;0.80;0.80;;;;;;;-5.00;100.00;97823.03;29373;223;63009;-57
2024/01/13 02:03:25;;;;;;;0.80;0.80;;;;;;;-4.98;100.00;97826.31;29372;225;64009;-57
2024/01/13 02:03:58;;;;;;;1.12;1.12;;;;;;;-4.96;100.00;97824.31;29373;206;63009;-57
2024/01/13 02:04:29;;;;;;;0.80;0.80;;;;;;;-4.97;100.00;97818.22;29371;206;64009;-57
2024/01/13 02:05:02;;;;;;;0.75;0.75;;;;;;;-4.97;100.00;97815.56;29373;225;63008;-57
2024/01/13 02:05:35;;;;;;;0.80;0.80;;;;;;;-4.99;100.00;97817.56;29373;197;63005;-57
2024/01/13 02:06:06;;;;;;;0.80;0.80;;;;;;;-5.01;100.00;97824.84;29373;310;63009;-57
2024/01/13 02:06:38;;;;;;;0.77;0.77;;;;;;;-5.03;100.00;97813.59;29373;225;63005;-57
2024/01/13 02:07:11;;;;;;;0.77;0.77;;;;;;;-5.03;100.00;97821.53;29373;296;63009;-57
2024/01/13 02:07:43;;;;;;;0.80;0.80;;;;;;;-5.01;100.00;97821.37;29373;305;63005;-58
2024/01/13 02:08:16;;;;;;;0.80;0.80;;;;;;;-5.04;100.00;97816.41;29373;197;63022;-56
2024/01/13 02:08:49;;;;;;;3.03;2.92;;;;;;;-5.07;100.00;97814.94;29371;352;64009;-57
2024/01/13 02:09:22;;;;;;;0.80;0.80;;;;;;;-5.12;100.00;97812.81;29373;290;63009;-57
2024/01/13 02:09:54;;;;;;;0.80;0.80;;;;;;;-5.07;100.00;97820.22;29373;199;63004;-58
2024/01/13 02:10:26;;;;;;;0.80;0.80;;;;;;;-5.07;100.00;97822.88;29373;215;63009;-57
2024/01/13 02:10:58;;;;;;;0.80;0.80;;;;;;;-5.06;100.00;97819.22;29373;375;63004;-57
2024/01/13 02:11:29;;;;;;;0.80;0.80;;;;;;;-5.07;100.00;97818.41;29373;212;63009;-57
2024/01/13 02:12:02;;;;;;;0.80;0.80;;;;;;;-5.06;100.00;97816.59;29371;259;64009;-57
2024/01/13 02:12:33;;;;;;;0.80;0.80;;;;;;;-5.07;100.00;97814.94;29373;197;63008;-58
2024/01/13 02:13:05;;;;;;;0.80;0.80;;;;;;;-5.06;100.00;97820.06;29373;358;63005;-57
2024/01/13 02:13:37;;;;;;;0.80;0.80;;;;;;;-5.06;100.00;97813.94;29373;307;63009;-57
2024/01/13 02:14:08;;;;;;;0.80;0.80;;;;;;;-5.06;100.00;97812.13;29373;203;63005;-57
2024/01/13 02:14:39;;;;;;;0.80;0.80;;;;;;;-5.05;100.00;97815.59;29373;297;63009;-57
2024/01/13 02:15:11;;;;;;;0.80;0.80;;;;;;;-5.07;100.00;97813.13;29373;199;63005;-57
2024/01/13 02:15:43;;;;;;;0.90;0.90;;;;;;;-5.06;100.00;97811.28;29373;217;63009;-57
2024/01/13 02:16:15;;;;;;;0.80;0.80;;;;;;;-5.06;100.00;97808.66;29372;334;64005;-57
2024/01/13 02:16:48;;;;;;;0.90;0.90;;;;;;;-5.05;100.00;97815.59;29371;254;64013;-58
2024/01/13 02:17:19;;;;;;;0.80;0.80;;;;;;;-5.06;100.00;97811.28;29373;284;63004;-57
2024/01/13 02:17:50;;;;;;;0.80;0.80;;;;;;;-5.05;100.00;97812.94;29373;275;63009;-57
2024/01/13 02:18:22;;;;;;;0.70;0.70;;;;;;;-5.07;100.00;97812.28;29372;210;64004;-57
2024/01/13 02:18:53;;;;;;;3.42;3.28;;;;;;;-5.06;100.00;97811.28;29373;375;63009;-57
2024/01/13 02:19:30;;;;;;;0.80;0.80;;;;;;;-5.05;100.00;97805.00;29372;202;63009;-57
2024/01/13 02:20:07;;;;;;;0.80;0.80;;;;;;;-5.03;100.00;97805.66;29373;208;63008;-57
2024/01/13 02:20:38;;;;;;;0.80;0.80;;;;;;;-5.00;100.00;97815.91;29373;228;63005;-57
2024/01/13 02:21:11;;;;;;;0.77;0.77;;;;;;;-5.00;100.00;97805.31;29373;216;63009;-57
2024/01/13 02:21:42;;;;;;;0.70;0.70;;;;;;;-5.01;100.00;97816.91;29373;281;63005;-57
2024/01/13 02:22:17;;;;;;;0.80;0.80;;;;;;;-5.03;100.00;97805.66;29373;229;63009;-57
2024/01/13 02:22:48;;;;;;;0.80;0.80;;;;;;;-5.07;100.00;97815.75;29373;209;63010;-57
2024/01/13 02:23:19;;;;;;;0.80;0.80;;;;;;;-5.11;100.00;97805.69;29373;210;63009;-58
2024/01/13 02:23:50;;;;;;;1.40;1.40;;;;;;;-5.11;100.00;97806.50;29373;274;63005;-57
2024/01/13 02:24:21;;;;;;;0.80;0.80;;;;;;;-5.10;100.00;97809.97;29371;232;64013;-57
2024/01/13 02:24:53;;;;;;;1.30;1.30;;;;;;;-5.11;100.00;97795.09;29373;226;63004;-57
2024/01/13 02:25:24;;;;;;;0.80;0.80;;;;;;;-5.12;100.00;97798.75;29373;288;63009;-57
2024/01/13 02:25:56;;;;;;;1.62;1.55;;;;;;;-5.13;100.00;97807.69;29371;233;64009;-57
2024/01/13 02:26:29;;;;;;;0.80;0.80;;;;;;;-5.13;100.00;97802.38;29373;202;63009;-58
2024/01/13 02:27:01;;;;;;;2.45;2.35;;;;;;;-5.12;100.00;97799.56;29373;215;63004;-57
2024/01/13 02:27:32;;;;;;;0.90;0.90;;;;;;;-5.11;100.00;97798.56;29373;227;63008;-57
2024/01/13 02:28:04;;;;;;;0.80;0.80;;;;;;;-5.09;100.00;97809.00;29373;347;63005;-57
2024/01/13 02:28:39;;;;;;;0.80;0.80;;;;;;;-5.10;100.00;97791.47;29373;216;63009;-57
2024/01/13 02:29:10;;;;;;;0.80;0.80;;;;;;;-5.12;100.00;97801.41;29373;231;63005;-57
2024/01/13 02:29:42;;;;;;;0.80;0.80;;;;;;;-5.13;100.00;97805.84;29373;222;63009;-57
2024/01/13 02:30:14;;;;;;;1.35;1.35;;;;;;;-5.11;100.00;97795.09;29371;221;64009;-57